sensor_id;sensor_type;location;lat;lon;timestamp;temperature;humidity
6008;DHT22;3032;49.484;11.112;2023-06-22T00:00:51;20.30;99.90
6008;DHT22;3032;49.484;11.112;2023-06-22T00:03:21;20.20;99.90
6008;DHT22;3032;49.484;11.112;2023-06-22T00:05:48;20.00;99.90
6008;DHT22;3032;49.484;11.112;2023-06-22T00:08:14;20.00;99.90
6008;DHT22;3032;49.484;11.112;2023-06-22T00:10:40;19.90;99.90
6008;DHT22;3032;49.484;11.112;2023-06-22T00:13:07;19.70;99.90
6008;DHT22;3032;49.484;11.112;2023-06-22T00:15:34;19.80;99.90
6008;DHT22;3032;49.484;11.112;2023-06-22T00:17:59;19.80;99.90
6008;DHT22;3032;49.484;11.112;2023-06-22T00:20:26;19.90;99.90
6008;DHT22;3032;49.484;11.112;2023-06-22T00:22:53;19.70;99.90
6008;DHT22;3032;49.484;11.112;2023-06-22T00:25:19;20.00;99.90
6008;DHT22;3032;49.484;11.112;2023-06-22T00:27:44;19.60;99.90
6008;DHT22;3032;49.484;11.112;2023-06-22T00:30:10;19.60;99.90
6008;DHT22;3032;49.484;11.112;2023-06-22T00:32:36;19.70;99.90
6008;DHT22;3032;49.484;11.112;2023-06-22T00:35:02;19.70;99.90
6008;DHT22;3032;49.484;11.112;2023-06-22T00:37:27;19.70;99.90
6008;DHT22;3032;49.484;11.112;2023-06-22T00:39:55;20.00;99.90
6008;DHT22;3032;49.484;11.112;2023-06-22T00:42:21;20.40;99.90
6008;DHT22;3032;49.484;11.112;2023-06-22T00:44:47;20.50;99.90
6008;DHT22;3032;49.484;11.112;2023-06-22T00:47:17;20.60;99.90
6008;DHT22;3032;49.484;11.112;2023-06-22T00:49:43;20.70;99.90
6008;DHT22;3032;49.484;11.112;2023-06-22T00:52:09;21.20;99.90
6008;DHT22;3032;49.484;11.112;2023-06-22T00:54:40;21.00;99.90
6008;DHT22;3032;49.484;11.112;2023-06-22T00:57:05;21.10;99.90
6008;DHT22;3032;49.484;11.112;2023-06-22T00:59:36;21.30;99.90
6008;DHT22;3032;49.484;11.112;2023-06-22T01:02:01;21.60;99.90
6008;DHT22;3032;49.484;11.112;2023-06-22T01:04:36;21.20;99.90
6008;DHT22;3032;49.484;11.112;2023-06-22T01:07:39;21.10;99.90
6008;DHT22;3032;49.484;11.112;2023-06-22T01:10:28;20.90;99.90
6008;DHT22;3032;49.484;11.112;2023-06-22T01:13:04;21.30;99.90
6008;DHT22;3032;49.484;11.112;2023-06-22T01:15:39;21.10;99.90
6008;DHT22;3032;49.484;11.112;2023-06-22T01:18:09;21.50;99.90
6008;DHT22;3032;49.484;11.112;2023-06-22T01:20:36;21.10;99.90
6008;DHT22;3032;49.484;11.112;2023-06-22T01:23:39;21.10;99.90
6008;DHT22;3032;49.484;11.112;2023-06-22T01:28:50;20.70;99.90
6008;DHT22;3032;49.484;11.112;2023-06-22T01:31:20;20.40;99.90
6008;DHT22;3032;49.484;11.112;2023-06-22T01:34:06;19.80;99.90
6008;DHT22;3032;49.484;11.112;2023-06-22T01:36:33;19.30;99.90
6008;DHT22;3032;49.484;11.112;2023-06-22T01:39:00;19.10;99.90
6008;DHT22;3032;49.484;11.112;2023-06-22T01:41:28;19.00;99.90
6008;DHT22;3032;49.484;11.112;2023-06-22T01:43:56;19.10;99.90
6008;DHT22;3032;49.484;11.112;2023-06-22T01:46:22;19.10;99.90
6008;DHT22;3032;49.484;11.112;2023-06-22T01:48:48;19.30;99.90
6008;DHT22;3032;49.484;11.112;2023-06-22T01:51:14;19.50;99.90
6008;DHT22;3032;49.484;11.112;2023-06-22T01:53:40;19.40;99.90
6008;DHT22;3032;49.484;11.112;2023-06-22T01:56:06;19.30;99.90
6008;DHT22;3032;49.484;11.112;2023-06-22T01:58:32;19.10;99.90
6008;DHT22;3032;49.484;11.112;2023-06-22T02:01:09;19.00;99.90
6008;DHT22;3032;49.484;11.112;2023-06-22T02:03:38;19.10;99.90
6008;DHT22;3032;49.484;11.112;2023-06-22T02:06:11;19.20;99.90
6008;DHT22;3032;49.484;11.112;2023-06-22T02:08:49;19.10;99.90
6008;DHT22;3032;49.484;11.112;2023-06-22T02:11:18;19.10;99.90
6008;DHT22;3032;49.484;11.112;2023-06-22T02:13:45;19.30;99.90
6008;DHT22;3032;49.484;11.112;2023-06-22T02:16:12;19.40;99.90
6008;DHT22;3032;49.484;11.112;2023-06-22T02:18:37;19.60;99.90
6008;DHT22;3032;49.484;11.112;2023-06-22T02:21:05;19.80;99.90
6008;DHT22;3032;49.484;11.112;2023-06-22T02:23:31;20.30;99.90
6008;DHT22;3032;49.484;11.112;2023-06-22T02:26:00;20.00;99.90
6008;DHT22;3032;49.484;11.112;2023-06-22T02:28:26;20.20;99.90
6008;DHT22;3032;49.484;11.112;2023-06-22T02:30:51;20.50;99.90
6008;DHT22;3032;49.484;11.112;2023-06-22T02:33:17;20.10;99.90
6008;DHT22;3032;49.484;11.112;2023-06-22T02:35:42;20.10;99.90
6008;DHT22;3032;49.484;11.112;2023-06-22T02:38:11;20.60;99.90
6008;DHT22;3032;49.484;11.112;2023-06-22T02:40:36;20.20;99.90
6008;DHT22;3032;49.484;11.112;2023-06-22T02:43:03;20.20;99.90
6008;DHT22;3032;49.484;11.112;2023-06-22T02:45:29;20.30;99.90
6008;DHT22;3032;49.484;11.112;2023-06-22T02:47:55;20.60;99.90
6008;DHT22;3032;49.484;11.112;2023-06-22T02:50:21;20.40;99.90
6008;DHT22;3032;49.484;11.112;2023-06-22T02:52:46;20.50;99.90
6008;DHT22;3032;49.484;11.112;2023-06-22T02:55:12;20.60;99.90
6008;DHT22;3032;49.484;11.112;2023-06-22T02:57:37;20.70;99.90
6008;DHT22;3032;49.484;11.112;2023-06-22T03:00:09;21.10;99.90
6008;DHT22;3032;49.484;11.112;2023-06-22T03:02:45;20.90;99.90
6008;DHT22;3032;49.484;11.112;2023-06-22T03:05:12;20.80;99.90
6008;DHT22;3032;49.484;11.112;2023-06-22T03:07:42;20.80;99.90
6008;DHT22;3032;49.484;11.112;2023-06-22T03:10:09;20.80;99.90
6008;DHT22;3032;49.484;11.112;2023-06-22T03:12:36;20.70;99.90
6008;DHT22;3032;49.484;11.112;2023-06-22T03:15:06;20.70;99.90
6008;DHT22;3032;49.484;11.112;2023-06-22T03:17:34;20.70;99.90
6008;DHT22;3032;49.484;11.112;2023-06-22T03:20:00;20.60;99.90
6008;DHT22;3032;49.484;11.112;2023-06-22T03:22:26;20.60;99.90
6008;DHT22;3032;49.484;11.112;2023-06-22T03:24:52;20.50;99.90
6008;DHT22;3032;49.484;11.112;2023-06-22T03:27:17;20.60;99.90
6008;DHT22;3032;49.484;11.112;2023-06-22T03:29:44;20.60;99.90
6008;DHT22;3032;49.484;11.112;2023-06-22T03:32:10;20.70;99.90
6008;DHT22;3032;49.484;11.112;2023-06-22T03:34:35;20.70;99.90
6008;DHT22;3032;49.484;11.112;2023-06-22T03:37:04;20.80;99.90
6008;DHT22;3032;49.484;11.112;2023-06-22T03:39:29;20.90;99.90
6008;DHT22;3032;49.484;11.112;2023-06-22T03:41:55;20.20;99.90
6008;DHT22;3032;49.484;11.112;2023-06-22T03:44:21;20.40;99.90
6008;DHT22;3032;49.484;11.112;2023-06-22T03:46:46;20.20;99.90
6008;DHT22;3032;49.484;11.112;2023-06-22T03:49:12;20.20;99.90
6008;DHT22;3032;49.484;11.112;2023-06-22T03:51:37;20.30;99.90
6008;DHT22;3032;49.484;11.112;2023-06-22T03:54:03;20.50;99.90
6008;DHT22;3032;49.484;11.112;2023-06-22T03:56:28;19.80;99.90
6008;DHT22;3032;49.484;11.112;2023-06-22T03:58:54;19.30;99.90
6008;DHT22;3032;49.484;11.112;2023-06-22T04:01:19;19.80;99.90
6008;DHT22;3032;49.484;11.112;2023-06-22T04:03:45;20.10;99.90
6008;DHT22;3032;49.484;11.112;2023-06-22T04:06:13;20.20;99.90
6008;DHT22;3032;49.484;11.112;2023-06-22T04:08:38;20.50;99.90
6008;DHT22;3032;49.484;11.112;2023-06-22T04:11:04;20.50;99.90
6008;DHT22;3032;49.484;11.112;2023-06-22T04:13:30;20.40;99.90
6008;DHT22;3032;49.484;11.112;2023-06-22T04:15:56;20.00;99.90
6008;DHT22;3032;49.484;11.112;2023-06-22T04:18:21;20.00;99.90
6008;DHT22;3032;49.484;11.112;2023-06-22T04:20:47;20.20;99.90
6008;DHT22;3032;49.484;11.112;2023-06-22T04:23:13;19.40;99.90
6008;DHT22;3032;49.484;11.112;2023-06-22T04:25:39;19.60;99.90
6008;DHT22;3032;49.484;11.112;2023-06-22T04:28:04;19.90;99.90
6008;DHT22;3032;49.484;11.112;2023-06-22T04:30:32;20.50;99.90
6008;DHT22;3032;49.484;11.112;2023-06-22T04:32:58;19.70;99.90
6008;DHT22;3032;49.484;11.112;2023-06-22T04:35:24;20.10;99.90
6008;DHT22;3032;49.484;11.112;2023-06-22T04:37:50;20.40;99.90
6008;DHT22;3032;49.484;11.112;2023-06-22T04:40:23;21.00;99.90
6008;DHT22;3032;49.484;11.112;2023-06-22T04:42:48;21.10;99.90
6008;DHT22;3032;49.484;11.112;2023-06-22T04:45:18;21.50;99.90
6008;DHT22;3032;49.484;11.112;2023-06-22T04:47:44;21.90;99.90
6008;DHT22;3032;49.484;11.112;2023-06-22T04:50:11;22.20;99.90
6008;DHT22;3032;49.484;11.112;2023-06-22T04:52:37;22.60;99.90
6008;DHT22;3032;49.484;11.112;2023-06-22T04:55:03;23.10;99.90
6008;DHT22;3032;49.484;11.112;2023-06-22T04:57:29;22.80;99.90
6008;DHT22;3032;49.484;11.112;2023-06-22T04:59:59;22.40;99.90
6008;DHT22;3032;49.484;11.112;2023-06-22T05:02:36;22.10;99.90
6008;DHT22;3032;49.484;11.112;2023-06-22T05:05:03;22.90;99.90
6008;DHT22;3032;49.484;11.112;2023-06-22T05:07:35;23.60;99.90
6008;DHT22;3032;49.484;11.112;2023-06-22T05:10:05;23.70;99.90
6008;DHT22;3032;49.484;11.112;2023-06-22T05:12:30;23.70;99.90
6008;DHT22;3032;49.484;11.112;2023-06-22T05:14:56;23.90;99.90
6008;DHT22;3032;49.484;11.112;2023-06-22T05:17:22;23.90;99.90
6008;DHT22;3032;49.484;11.112;2023-06-22T05:19:48;23.40;99.90
6008;DHT22;3032;49.484;11.112;2023-06-22T05:22:17;23.90;99.90
6008;DHT22;3032;49.484;11.112;2023-06-22T05:24:42;24.80;99.90
6008;DHT22;3032;49.484;11.112;2023-06-22T05:27:09;25.70;99.90
6008;DHT22;3032;49.484;11.112;2023-06-22T05:29:35;25.90;99.90
6008;DHT22;3032;49.484;11.112;2023-06-22T05:32:01;26.10;99.90
6008;DHT22;3032;49.484;11.112;2023-06-22T05:34:26;26.80;99.90
6008;DHT22;3032;49.484;11.112;2023-06-22T05:36:52;26.90;99.90
6008;DHT22;3032;49.484;11.112;2023-06-22T05:39:17;27.80;99.90
6008;DHT22;3032;49.484;11.112;2023-06-22T05:41:44;27.80;99.90
6008;DHT22;3032;49.484;11.112;2023-06-22T05:44:10;27.50;99.90
6008;DHT22;3032;49.484;11.112;2023-06-22T05:46:36;28.10;99.90
6008;DHT22;3032;49.484;11.112;2023-06-22T05:49:01;28.50;99.90
6008;DHT22;3032;49.484;11.112;2023-06-22T05:51:27;29.30;99.90
6008;DHT22;3032;49.484;11.112;2023-06-22T05:53:52;29.90;99.90
6008;DHT22;3032;49.484;11.112;2023-06-22T05:56:18;30.50;99.90
6008;DHT22;3032;49.484;11.112;2023-06-22T05:58:44;30.30;99.90
6008;DHT22;3032;49.484;11.112;2023-06-22T06:01:09;30.10;99.90
6008;DHT22;3032;49.484;11.112;2023-06-22T06:03:35;29.20;99.90
6008;DHT22;3032;49.484;11.112;2023-06-22T06:06:07;28.80;99.90
6008;DHT22;3032;49.484;11.112;2023-06-22T06:08:32;29.10;99.90
6008;DHT22;3032;49.484;11.112;2023-06-22T06:10:58;28.40;99.90
6008;DHT22;3032;49.484;11.112;2023-06-22T06:13:24;28.80;99.90
6008;DHT22;3032;49.484;11.112;2023-06-22T06:15:49;28.70;99.90
6008;DHT22;3032;49.484;11.112;2023-06-22T06:18:17;29.40;99.90
6008;DHT22;3032;49.484;11.112;2023-06-22T06:20:42;30.10;99.90
6008;DHT22;3032;49.484;11.112;2023-06-22T06:23:08;30.40;99.90
6008;DHT22;3032;49.484;11.112;2023-06-22T06:25:33;31.10;99.90
6008;DHT22;3032;49.484;11.112;2023-06-22T06:27:59;31.50;99.90
6008;DHT22;3032;49.484;11.112;2023-06-22T06:30:25;31.90;99.90
6008;DHT22;3032;49.484;11.112;2023-06-22T06:32:50;30.70;99.90
6008;DHT22;3032;49.484;11.112;2023-06-22T06:35:16;31.70;99.90
6008;DHT22;3032;49.484;11.112;2023-06-22T06:37:44;31.50;99.90
6008;DHT22;3032;49.484;11.112;2023-06-22T06:40:11;32.30;99.90
6008;DHT22;3032;49.484;11.112;2023-06-22T06:42:41;32.30;99.90
6008;DHT22;3032;49.484;11.112;2023-06-22T06:45:18;33.50;99.60
6008;DHT22;3032;49.484;11.112;2023-06-22T06:47:44;33.10;99.90
6008;DHT22;3032;49.484;11.112;2023-06-22T06:50:10;34.70;97.60
6008;DHT22;3032;49.484;11.112;2023-06-22T06:52:36;35.60;96.40
6008;DHT22;3032;49.484;11.112;2023-06-22T06:55:01;35.30;95.00
6008;DHT22;3032;49.484;11.112;2023-06-22T06:57:29;34.00;95.40
6008;DHT22;3032;49.484;11.112;2023-06-22T06:59:58;33.80;96.40
6008;DHT22;3032;49.484;11.112;2023-06-22T07:02:25;34.20;95.70
6008;DHT22;3032;49.484;11.112;2023-06-22T07:04:51;34.40;95.50
6008;DHT22;3032;49.484;11.112;2023-06-22T07:07:16;34.60;95.00
6008;DHT22;3032;49.484;11.112;2023-06-22T07:09:42;35.00;94.60
6008;DHT22;3032;49.484;11.112;2023-06-22T07:12:08;35.70;94.00
6008;DHT22;3032;49.484;11.112;2023-06-22T07:14:33;36.30;93.10
6008;DHT22;3032;49.484;11.112;2023-06-22T07:16:59;36.40;92.50
6008;DHT22;3032;49.484;11.112;2023-06-22T07:19:26;36.70;91.50
6008;DHT22;3032;49.484;11.112;2023-06-22T07:21:54;36.00;91.20
6008;DHT22;3032;49.484;11.112;2023-06-22T07:24:21;36.00;91.00
6008;DHT22;3032;49.484;11.112;2023-06-22T07:26:47;36.30;91.10
6008;DHT22;3032;49.484;11.112;2023-06-22T07:29:17;36.20;91.30
6008;DHT22;3032;49.484;11.112;2023-06-22T07:31:43;36.70;90.20
6008;DHT22;3032;49.484;11.112;2023-06-22T07:34:09;37.50;88.80
6008;DHT22;3032;49.484;11.112;2023-06-22T07:36:34;38.50;84.50
6008;DHT22;3032;49.484;11.112;2023-06-22T07:39:04;38.50;82.80
6008;DHT22;3032;49.484;11.112;2023-06-22T07:41:30;38.30;83.10
6008;DHT22;3032;49.484;11.112;2023-06-22T07:43:55;37.70;84.20
6008;DHT22;3032;49.484;11.112;2023-06-22T07:46:21;37.90;83.20
6008;DHT22;3032;49.484;11.112;2023-06-22T07:48:47;38.70;81.40
6008;DHT22;3032;49.484;11.112;2023-06-22T07:51:13;39.60;80.10
6008;DHT22;3032;49.484;11.112;2023-06-22T07:53:43;39.40;78.30
6008;DHT22;3032;49.484;11.112;2023-06-22T07:56:12;38.30;79.60
6008;DHT22;3032;49.484;11.112;2023-06-22T07:58:38;37.80;80.80
6008;DHT22;3032;49.484;11.112;2023-06-22T08:01:03;38.70;81.00
6008;DHT22;3032;49.484;11.112;2023-06-22T08:03:29;38.70;78.30
6008;DHT22;3032;49.484;11.112;2023-06-22T08:05:55;38.50;78.20
6008;DHT22;3032;49.484;11.112;2023-06-22T08:08:21;38.50;77.00
6008;DHT22;3032;49.484;11.112;2023-06-22T08:10:47;38.50;74.80
6008;DHT22;3032;49.484;11.112;2023-06-22T08:13:12;39.20;74.50
6008;DHT22;3032;49.484;11.112;2023-06-22T08:15:38;39.60;72.00
6008;DHT22;3032;49.484;11.112;2023-06-22T08:18:03;38.40;72.40
6008;DHT22;3032;49.484;11.112;2023-06-22T08:20:29;39.00;72.20
6008;DHT22;3032;49.484;11.112;2023-06-22T08:22:55;40.20;70.80
6008;DHT22;3032;49.484;11.112;2023-06-22T08:25:21;41.10;68.50
6008;DHT22;3032;49.484;11.112;2023-06-22T08:27:47;42.00;68.10
6008;DHT22;3032;49.484;11.112;2023-06-22T08:30:14;41.20;65.80
6008;DHT22;3032;49.484;11.112;2023-06-22T08:32:39;40.70;66.30
6008;DHT22;3032;49.484;11.112;2023-06-22T08:35:05;41.60;67.20
6008;DHT22;3032;49.484;11.112;2023-06-22T08:37:33;42.30;64.80
6008;DHT22;3032;49.484;11.112;2023-06-22T08:40:03;43.50;62.20
6008;DHT22;3032;49.484;11.112;2023-06-22T08:42:35;43.70;60.00
6008;DHT22;3032;49.484;11.112;2023-06-22T08:45:02;42.30;60.10
6008;DHT22;3032;49.484;11.112;2023-06-22T08:47:28;42.10;60.00
6008;DHT22;3032;49.484;11.112;2023-06-22T08:49:54;41.70;60.80
6008;DHT22;3032;49.484;11.112;2023-06-22T08:52:20;42.30;59.60
6008;DHT22;3032;49.484;11.112;2023-06-22T08:54:46;41.80;59.60
6008;DHT22;3032;49.484;11.112;2023-06-22T08:57:12;40.60;59.60
6008;DHT22;3032;49.484;11.112;2023-06-22T08:59:37;41.10;59.80
6008;DHT22;3032;49.484;11.112;2023-06-22T09:02:03;40.40;59.20
6008;DHT22;3032;49.484;11.112;2023-06-22T09:04:28;39.50;62.50
6008;DHT22;3032;49.484;11.112;2023-06-22T09:06:54;40.50;63.20
6008;DHT22;3032;49.484;11.112;2023-06-22T09:09:21;41.90;60.90
6008;DHT22;3032;49.484;11.112;2023-06-22T09:11:47;43.20;59.00
6008;DHT22;3032;49.484;11.112;2023-06-22T09:14:12;43.50;57.40
6008;DHT22;3032;49.484;11.112;2023-06-22T09:16:38;43.40;55.70
6008;DHT22;3032;49.484;11.112;2023-06-22T09:19:04;43.00;54.30
6008;DHT22;3032;49.484;11.112;2023-06-22T09:21:29;41.20;57.00
6008;DHT22;3032;49.484;11.112;2023-06-22T09:23:55;40.50;56.90
6008;DHT22;3032;49.484;11.112;2023-06-22T09:26:21;40.10;57.70
6008;DHT22;3032;49.484;11.112;2023-06-22T09:28:49;39.60;57.10
6008;DHT22;3032;49.484;11.112;2023-06-22T09:31:14;39.20;58.10
6008;DHT22;3032;49.484;11.112;2023-06-22T09:33:41;39.20;58.30
6008;DHT22;3032;49.484;11.112;2023-06-22T09:36:07;38.20;58.30
6008;DHT22;3032;49.484;11.112;2023-06-22T09:38:39;38.40;59.10
6008;DHT22;3032;49.484;11.112;2023-06-22T09:41:05;38.30;58.60
6008;DHT22;3032;49.484;11.112;2023-06-22T09:43:32;38.50;58.70
6008;DHT22;3032;49.484;11.112;2023-06-22T09:46:00;39.40;58.00
6008;DHT22;3032;49.484;11.112;2023-06-22T09:48:27;39.50;56.80
6008;DHT22;3032;49.484;11.112;2023-06-22T09:50:52;39.10;56.40
6008;DHT22;3032;49.484;11.112;2023-06-22T09:53:18;37.70;58.40
6008;DHT22;3032;49.484;11.112;2023-06-22T09:55:43;37.20;58.70
6008;DHT22;3032;49.484;11.112;2023-06-22T09:58:09;37.00;59.70
6008;DHT22;3032;49.484;11.112;2023-06-22T10:00:35;37.10;60.00
6008;DHT22;3032;49.484;11.112;2023-06-22T10:03:01;37.30;58.70
6008;DHT22;3032;49.484;11.112;2023-06-22T10:05:26;37.70;59.00
6008;DHT22;3032;49.484;11.112;2023-06-22T10:07:52;37.40;58.30
6008;DHT22;3032;49.484;11.112;2023-06-22T10:10:17;37.40;58.90
6008;DHT22;3032;49.484;11.112;2023-06-22T10:12:46;37.20;58.70
6008;DHT22;3032;49.484;11.112;2023-06-22T10:15:12;37.50;58.80
6008;DHT22;3032;49.484;11.112;2023-06-22T10:17:48;37.80;58.80
6008;DHT22;3032;49.484;11.112;2023-06-22T10:20:16;38.90;58.50
6008;DHT22;3032;49.484;11.112;2023-06-22T10:22:44;39.40;57.40
6008;DHT22;3032;49.484;11.112;2023-06-22T10:25:12;39.00;56.60
6008;DHT22;3032;49.484;11.112;2023-06-22T10:27:38;38.70;57.60
6008;DHT22;3032;49.484;11.112;2023-06-22T10:30:11;38.50;57.30
6008;DHT22;3032;49.484;11.112;2023-06-22T10:32:41;38.80;57.30
6008;DHT22;3032;49.484;11.112;2023-06-22T10:35:08;39.30;56.50
6008;DHT22;3032;49.484;11.112;2023-06-22T10:37:33;38.80;56.20
6008;DHT22;3032;49.484;11.112;2023-06-22T10:39:59;39.00;57.10
6008;DHT22;3032;49.484;11.112;2023-06-22T10:42:24;38.50;57.40
6008;DHT22;3032;49.484;11.112;2023-06-22T10:44:50;39.20;57.90
6008;DHT22;3032;49.484;11.112;2023-06-22T10:47:16;40.40;56.00
6008;DHT22;3032;49.484;11.112;2023-06-22T10:49:41;41.30;55.50
6008;DHT22;3032;49.484;11.112;2023-06-22T10:52:08;41.70;54.00
6008;DHT22;3032;49.484;11.112;2023-06-22T10:54:35;40.70;55.50
6008;DHT22;3032;49.484;11.112;2023-06-22T10:57:01;40.90;55.50
6008;DHT22;3032;49.484;11.112;2023-06-22T10:59:27;41.40;54.40
6008;DHT22;3032;49.484;11.112;2023-06-22T11:01:54;42.30;53.00
6008;DHT22;3032;49.484;11.112;2023-06-22T11:04:20;42.50;52.80
6008;DHT22;3032;49.484;11.112;2023-06-22T11:06:47;42.40;51.90
6008;DHT22;3032;49.484;11.112;2023-06-22T11:09:12;41.80;52.30
6008;DHT22;3032;49.484;11.112;2023-06-22T11:11:38;41.50;53.10
6008;DHT22;3032;49.484;11.112;2023-06-22T11:14:03;40.90;53.90
6008;DHT22;3032;49.484;11.112;2023-06-22T11:16:29;41.70;53.30
6008;DHT22;3032;49.484;11.112;2023-06-22T11:18:54;42.30;51.40
6008;DHT22;3032;49.484;11.112;2023-06-22T11:21:20;41.40;51.60
6008;DHT22;3032;49.484;11.112;2023-06-22T11:23:46;40.20;53.50
6008;DHT22;3032;49.484;11.112;2023-06-22T11:26:11;39.60;53.10
6008;DHT22;3032;49.484;11.112;2023-06-22T11:28:37;39.50;55.10
6008;DHT22;3032;49.484;11.112;2023-06-22T11:31:03;40.00;52.70
6008;DHT22;3032;49.484;11.112;2023-06-22T11:33:28;40.40;53.10
6008;DHT22;3032;49.484;11.112;2023-06-22T11:35:54;41.00;52.50
6008;DHT22;3032;49.484;11.112;2023-06-22T11:38:21;41.00;52.70
6008;DHT22;3032;49.484;11.112;2023-06-22T11:40:47;40.30;52.40
6008;DHT22;3032;49.484;11.112;2023-06-22T11:43:12;40.00;52.40
6008;DHT22;3032;49.484;11.112;2023-06-22T11:45:40;40.30;52.80
6008;DHT22;3032;49.484;11.112;2023-06-22T11:48:05;40.80;52.20
6008;DHT22;3032;49.484;11.112;2023-06-22T11:50:31;40.10;51.70
6008;DHT22;3032;49.484;11.112;2023-06-22T11:53:03;40.10;52.70
6008;DHT22;3032;49.484;11.112;2023-06-22T11:55:29;40.70;52.80
6008;DHT22;3032;49.484;11.112;2023-06-22T11:57:56;41.60;52.00
6008;DHT22;3032;49.484;11.112;2023-06-22T12:00:24;41.90;50.60
6008;DHT22;3032;49.484;11.112;2023-06-22T12:02:50;42.00;51.10
6008;DHT22;3032;49.484;11.112;2023-06-22T12:05:20;41.80;51.00
6008;DHT22;3032;49.484;11.112;2023-06-22T12:07:49;41.70;52.10
6008;DHT22;3032;49.484;11.112;2023-06-22T12:10:15;42.00;50.70
6008;DHT22;3032;49.484;11.112;2023-06-22T12:12:41;42.60;50.40
6008;DHT22;3032;49.484;11.112;2023-06-22T12:15:08;42.30;50.00
6008;DHT22;3032;49.484;11.112;2023-06-22T12:17:34;40.40;51.60
6008;DHT22;3032;49.484;11.112;2023-06-22T12:20:00;40.10;52.80
6008;DHT22;3032;49.484;11.112;2023-06-22T12:22:25;40.30;51.70
6008;DHT22;3032;49.484;11.112;2023-06-22T12:24:51;40.40;51.90
6008;DHT22;3032;49.484;11.112;2023-06-22T12:27:17;40.60;51.70
6008;DHT22;3032;49.484;11.112;2023-06-22T12:29:45;41.50;50.90
6008;DHT22;3032;49.484;11.112;2023-06-22T12:32:10;41.60;50.30
6008;DHT22;3032;49.484;11.112;2023-06-22T12:34:38;41.20;51.10
6008;DHT22;3032;49.484;11.112;2023-06-22T12:37:04;41.00;51.50
6008;DHT22;3032;49.484;11.112;2023-06-22T12:39:31;40.30;51.20
6008;DHT22;3032;49.484;11.112;2023-06-22T12:41:57;40.10;52.40
6008;DHT22;3032;49.484;11.112;2023-06-22T12:44:22;40.00;51.80
6008;DHT22;3032;49.484;11.112;2023-06-22T12:46:48;40.90;51.10
6008;DHT22;3032;49.484;11.112;2023-06-22T12:49:13;41.60;51.40
6008;DHT22;3032;49.484;11.112;2023-06-22T12:51:40;41.20;49.60
6008;DHT22;3032;49.484;11.112;2023-06-22T12:54:07;40.60;50.00
6008;DHT22;3032;49.484;11.112;2023-06-22T12:56:33;40.20;51.00
6008;DHT22;3032;49.484;11.112;2023-06-22T12:58:59;40.40;51.60
6008;DHT22;3032;49.484;11.112;2023-06-22T13:01:27;40.30;49.80
6008;DHT22;3032;49.484;11.112;2023-06-22T13:03:53;39.80;50.20
6008;DHT22;3032;49.484;11.112;2023-06-22T13:06:19;39.30;52.20
6008;DHT22;3032;49.484;11.112;2023-06-22T13:08:44;39.10;51.70
6008;DHT22;3032;49.484;11.112;2023-06-22T13:11:10;39.40;52.50
6008;DHT22;3032;49.484;11.112;2023-06-22T13:13:35;39.50;53.50
6008;DHT22;3032;49.484;11.112;2023-06-22T13:16:01;40.00;53.60
6008;DHT22;3032;49.484;11.112;2023-06-22T13:18:27;39.30;53.20
6008;DHT22;3032;49.484;11.112;2023-06-22T13:20:52;39.10;52.80
6008;DHT22;3032;49.484;11.112;2023-06-22T13:23:20;38.60;53.50
6008;DHT22;3032;49.484;11.112;2023-06-22T13:25:46;38.50;52.60
6008;DHT22;3032;49.484;11.112;2023-06-22T13:28:12;37.90;54.30
6008;DHT22;3032;49.484;11.112;2023-06-22T13:30:39;38.00;53.40
6008;DHT22;3032;49.484;11.112;2023-06-22T13:33:05;37.70;54.30
6008;DHT22;3032;49.484;11.112;2023-06-22T13:35:31;38.10;54.40
6008;DHT22;3032;49.484;11.112;2023-06-22T13:37:57;38.70;55.00
6008;DHT22;3032;49.484;11.112;2023-06-22T13:40:22;39.50;53.40
6008;DHT22;3032;49.484;11.112;2023-06-22T13:42:48;39.40;52.30
6008;DHT22;3032;49.484;11.112;2023-06-22T13:45:13;38.90;52.50
6008;DHT22;3032;49.484;11.112;2023-06-22T13:47:41;38.70;54.50
6008;DHT22;3032;49.484;11.112;2023-06-22T13:50:07;38.40;53.30
6008;DHT22;3032;49.484;11.112;2023-06-22T13:52:33;38.10;56.10
6008;DHT22;3032;49.484;11.112;2023-06-22T13:54:59;38.50;55.00
6008;DHT22;3032;49.484;11.112;2023-06-22T13:57:24;38.40;53.60
6008;DHT22;3032;49.484;11.112;2023-06-22T13:59:50;37.70;54.10
6008;DHT22;3032;49.484;11.112;2023-06-22T14:02:15;37.90;54.10
6008;DHT22;3032;49.484;11.112;2023-06-22T14:04:41;38.90;54.00
6008;DHT22;3032;49.484;11.112;2023-06-22T14:07:07;39.60;52.90
6008;DHT22;3032;49.484;11.112;2023-06-22T14:09:32;40.40;53.10
6008;DHT22;3032;49.484;11.112;2023-06-22T14:12:03;39.70;52.10
6008;DHT22;3032;49.484;11.112;2023-06-22T14:14:29;39.10;52.80
6008;DHT22;3032;49.484;11.112;2023-06-22T14:16:55;39.40;53.00
6008;DHT22;3032;49.484;11.112;2023-06-22T14:19:20;39.70;52.10
6008;DHT22;3032;49.484;11.112;2023-06-22T14:21:46;39.20;53.30
6008;DHT22;3032;49.484;11.112;2023-06-22T14:24:11;39.20;52.30
6008;DHT22;3032;49.484;11.112;2023-06-22T14:26:37;39.00;53.30
6008;DHT22;3032;49.484;11.112;2023-06-22T14:29:03;39.50;53.00
6008;DHT22;3032;49.484;11.112;2023-06-22T14:31:29;39.80;52.00
6008;DHT22;3032;49.484;11.112;2023-06-22T14:33:55;38.40;53.90
6008;DHT22;3032;49.484;11.112;2023-06-22T14:36:20;37.80;54.30
6008;DHT22;3032;49.484;11.112;2023-06-22T14:38:46;38.30;54.80
6008;DHT22;3032;49.484;11.112;2023-06-22T14:41:12;39.30;53.60
6008;DHT22;3032;49.484;11.112;2023-06-22T14:43:37;40.10;55.00
6008;DHT22;3032;49.484;11.112;2023-06-22T14:46:03;40.60;52.50
6008;DHT22;3032;49.484;11.112;2023-06-22T14:48:29;40.70;51.70
6008;DHT22;3032;49.484;11.112;2023-06-22T14:50:54;40.40;51.40
6008;DHT22;3032;49.484;11.112;2023-06-22T14:53:20;40.30;53.00
6008;DHT22;3032;49.484;11.112;2023-06-22T14:55:46;39.70;53.70
6008;DHT22;3032;49.484;11.112;2023-06-22T14:58:11;39.60;53.60
6008;DHT22;3032;49.484;11.112;2023-06-22T15:00:37;40.10;53.50
6008;DHT22;3032;49.484;11.112;2023-06-22T15:03:04;40.20;53.70
6008;DHT22;3032;49.484;11.112;2023-06-22T15:05:32;40.40;53.10
6008;DHT22;3032;49.484;11.112;2023-06-22T15:07:57;40.00;53.50
6008;DHT22;3032;49.484;11.112;2023-06-22T15:10:23;39.10;53.80
6008;DHT22;3032;49.484;11.112;2023-06-22T15:12:50;39.40;54.10
6008;DHT22;3032;49.484;11.112;2023-06-22T15:15:16;40.20;54.40
6008;DHT22;3032;49.484;11.112;2023-06-22T15:17:41;40.70;53.00
6008;DHT22;3032;49.484;11.112;2023-06-22T15:20:07;40.80;53.30
6008;DHT22;3032;49.484;11.112;2023-06-22T15:22:33;40.60;52.00
6008;DHT22;3032;49.484;11.112;2023-06-22T15:24:59;40.00;51.70
6008;DHT22;3032;49.484;11.112;2023-06-22T15:27:25;39.10;52.50
6008;DHT22;3032;49.484;11.112;2023-06-22T15:29:50;38.10;53.90
6008;DHT22;3032;49.484;11.112;2023-06-22T15:32:16;37.80;54.00
6008;DHT22;3032;49.484;11.112;2023-06-22T15:34:42;37.80;54.30
6008;DHT22;3032;49.484;11.112;2023-06-22T15:37:07;37.70;54.30
6008;DHT22;3032;49.484;11.112;2023-06-22T15:39:33;37.80;55.10
6008;DHT22;3032;49.484;11.112;2023-06-22T15:41:58;37.50;54.80
6008;DHT22;3032;49.484;11.112;2023-06-22T15:44:24;36.80;56.40